Time;durP1;ratioP1;P1;durP2;ratioP2;P2;SDS_P1;SDS_P2;PMS_P1;PMS_P2;Temp;Humidity;BMP_temperature;BMP_pressure;BME280_temperature;BME280_humidity;BME280_pressure;Samples;Min_cycle;Max_cycle;Signal;HPM_P1;HPM_P2
2021/12/12 00:02:11;;;;;;;9.37;5.63;;;5.60;99.50;;;;;;5016822;28;20431;-74
2021/12/12 00:04:44;;;;;;;13.27;6.63;;;5.60;99.70;;;;;;5017023;28;20794;-74
2021/12/12 00:07:15;;;;;;;9.03;5.93;;;5.60;99.70;;;;;;5017453;28;20467;-74
2021/12/12 00:09:45;;;;;;;10.10;5.90;;;5.60;99.80;;;;;;5016708;28;20467;-74
2021/12/12 00:12:15;;;;;;;11.23;4.63;;;5.60;99.60;;;;;;5017162;28;20459;-74
2021/12/12 00:14:44;;;;;;;9.73;5.07;;;5.60;99.60;;;;;;5016815;28;20440;-74
2021/12/12 00:17:13;;;;;;;10.07;5.20;;;5.60;99.80;;;;;;5016960;28;20573;-74
2021/12/12 00:19:41;;;;;;;10.80;5.53;;;5.60;99.60;;;;;;5017424;28;20577;-74
2021/12/12 00:22:13;;;;;;;10.83;5.30;;;5.60;99.60;;;;;;5016609;28;20834;-73
2021/12/12 00:24:41;;;;;;;10.70;4.60;;;5.60;99.80;;;;;;5016592;28;20436;-74
2021/12/12 00:27:09;;;;;;;9.70;5.10;;;5.60;99.80;;;;;;5016479;28;20458;-74
2021/12/12 00:29:37;;;;;;;9.90;6.00;;;5.60;99.50;;;;;;5016495;28;20478;-73
2021/12/12 00:32:10;;;;;;;12.83;6.43;;;5.60;99.60;;;;;;5016090;28;20443;-73
2021/12/12 00:34:43;;;;;;;10.40;6.13;;;5.60;99.50;;;;;;5017101;28;20439;-73
2021/12/12 00:37:11;;;;;;;12.23;6.13;;;5.60;99.60;;;;;;5017814;28;20471;-74
2021/12/12 00:39:42;;;;;;;11.07;5.60;;;5.50;99.70;;;;;;5016259;28;20467;-73
2021/12/12 00:42:12;;;;;;;9.30;5.47;;;5.50;99.90;;;;;;5016098;28;20918;-73
2021/12/12 00:44:44;;;;;;;11.83;6.43;;;5.50;99.90;;;;;;5016517;28;20449;-73
2021/12/12 00:47:12;;;;;;;9.00;6.13;;;5.50;99.90;;;;;;5017076;28;20438;-73
2021/12/12 00:49:41;;;;;;;11.60;5.43;;;5.50;99.90;;;;;;5018342;28;20506;-73
2021/12/12 00:52:10;;;;;;;9.03;6.00;;;5.50;99.90;;;;;;5016044;28;20455;-74
2021/12/12 00:54:38;;;;;;;14.10;5.87;;;5.50;99.90;;;;;;5017415;28;20521;-74
2021/12/12 00:57:07;;;;;;;9.13;5.30;;;5.50;99.90;;;;;;5016502;28;20483;-74
2021/12/12 00:59:36;;;;;;;9.17;5.70;;;5.50;99.90;;;;;;5016062;28;20465;-74
2021/12/12 01:02:06;;;;;;;8.10;5.90;;;5.50;99.90;;;;;;5016249;28;20443;-73
2021/12/12 01:04:37;;;;;;;9.77;5.10;;;5.50;99.90;;;;;;5017102;28;20455;-74
2021/12/12 01:07:07;;;;;;;8.70;5.00;;;5.50;99.90;;;;;;5016181;28;20451;-74
2021/12/12 01:09:36;;;;;;;10.07;5.80;;;5.50;99.90;;;;;;5015357;28;20463;-74
2021/12/12 01:12:07;;;;;;;14.47;6.20;;;5.50;99.90;;;;;;5015450;28;20792;-74
2021/12/12 01:14:40;;;;;;;8.87;5.20;;;5.50;99.90;;;;;;5015866;28;20472;-74
2021/12/12 01:17:11;;;;;;;12.67;6.57;;;5.50;99.90;;;;;;5016094;28;20483;-74
2021/12/12 01:19:43;;;;;;;9.73;5.70;;;5.40;99.90;;;;;;5015124;28;20487;-74
2021/12/12 01:22:16;;;;;;;10.57;5.43;;;5.40;99.90;;;;;;5015591;28;20507;-74
2021/12/12 01:24:47;;;;;;;12.87;5.10;;;5.40;99.90;;;;;;5015578;28;20471;-74
2021/12/12 01:27:15;;;;;;;6.00;4.60;;;5.50;99.90;;;;;;5016169;28;20424;-74
2021/12/12 01:29:43;;;;;;;15.00;4.43;;;5.50;99.90;;;;;;5015475;28;20494;-74
2021/12/12 01:32:21;;;;;;;8.03;4.50;;;5.50;99.90;;;;;;5015265;28;20829;-74
2021/12/12 01:34:51;;;;;;;5.80;4.27;;;5.50;99.90;;;;;;5015189;28;20481;-74
2021/12/12 01:37:35;;;;;;;11.93;5.30;;;5.50;99.90;;;;;;5015189;28;20517;-73
2021/12/12 01:40:09;;;;;;;7.00;4.90;;;5.60;99.90;;;;;;5015516;28;20467;-74
2021/12/12 01:42:40;;;;;;;8.50;5.00;;;5.60;99.90;;;;;;5015615;28;20451;-74
2021/12/12 01:45:12;;;;;;;10.80;5.03;;;5.50;99.90;;;;;;5014992;28;20443;-73
2021/12/12 01:47:42;;;;;;;9.43;5.10;;;5.50;99.90;;;;;;5015350;28;20423;-74
2021/12/12 01:50:15;;;;;;;7.27;4.50;;;5.60;99.90;;;;;;5015633;28;20463;-74
2021/12/12 01:52:43;;;;;;;18.60;5.03;;;5.50;99.90;;;;;;5015149;28;20442;-74
2021/12/12 01:55:18;;;;;;;6.53;4.30;;;5.50;99.90;;;;;;5015106;28;20451;-74
2021/12/12 01:57:45;;;;;;;7.50;4.23;;;5.50;99.90;;;;;;5015769;28;20905;-73
2021/12/12 02:00:18;;;;;;;8.03;4.27;;;5.60;99.90;;;;;;5015134;28;20776;-73
2021/12/12 02:02:45;;;;;;;8.13;4.60;;;5.60;99.90;;;;;;5015206;28;20435;-73
2021/12/12 02:05:17;;;;;;;8.07;5.03;;;5.60;99.90;;;;;;5015170;28;20451;-74
2021/12/12 02:07:55;;;;;;;6.60;4.40;;;5.60;99.90;;;;;;5015463;28;20432;-73
2021/12/12 02:10:25;;;;;;;6.63;4.37;;;5.60;99.90;;;;;;5015540;28;20439;-73
2021/12/12 02:12:52;;;;;;;7.10;5.23;;;5.70;99.90;;;;;;5016316;28;20440;-73
2021/12/12 02:15:20;;;;;;;6.73;4.17;;;5.70;99.90;;;;;;5017881;28;20482;-73
2021/12/12 02:17:50;;;;;;;7.83;4.07;;;5.70;99.90;;;;;;5014473;28;20471;-73
2021/12/12 02:20:32;;;;;;;13.30;3.80;;;5.70;99.90;;;;;;5016027;28;20431;-75
2021/12/12 02:23:09;;;;;;;7.30;3.90;;;5.70;99.90;;;;;;5015221;28;20435;-73
2021/12/12 02:36:42;;;;;;;9.30;3.97;;;5.80;99.90;;;;;;5014309;28;20404;-74
2021/12/12 02:39:15;;;;;;;10.70;5.20;;;5.80;99.90;;;;;;5013632;28;21029;-74
2021/12/12 02:41:44;;;;;;;5.90;4.00;;;5.80;99.90;;;;;;5014206;28;20470;-74
2021/12/12 02:44:11;;;;;;;6.57;4.20;;;5.80;99.90;;;;;;5014084;28;20450;-74
2021/12/12 02:46:41;;;;;;;11.87;4.30;;;5.90;99.90;;;;;;5013983;28;20455;-74
2021/12/12 02:49:23;;;;;;;5.97;3.77;;;5.90;99.80;;;;;;5014041;28;20472;-74
2021/12/12 02:51:51;;;;;;;9.63;4.23;;;5.90;99.90;;;;;;5014009;28;20515;-74
2021/12/12 02:54:19;;;;;;;9.33;4.07;;;6.00;99.90;;;;;;5013979;28;20454;-74
2021/12/12 02:56:48;;;;;;;11.87;4.63;;;6.00;99.80;;;;;;5013790;28;20937;-74
2021/12/12 02:59:19;;;;;;;10.00;4.00;;;6.00;99.80;;;;;;5013917;28;20487;-74
2021/12/12 03:01:50;;;;;;;5.87;4.43;;;6.10;99.60;;;;;;5013974;28;20435;-74
2021/12/12 03:04:17;;;;;;;7.07;4.30;;;6.10;99.60;;;;;;5013899;28;20424;-74
2021/12/12 03:06:44;;;;;;;6.60;4.23;;;6.10;99.60;;;;;;5013951;28;20454;-74
2021/12/12 03:09:15;;;;;;;8.60;4.50;;;6.10;99.60;;;;;;5013458;28;20463;-74
2021/12/12 03:11:43;;;;;;;8.67;4.10;;;6.10;99.60;;;;;;5013702;28;20924;-74
2021/12/12 03:14:11;;;;;;;8.47;3.90;;;6.10;99.70;;;;;;5013786;28;20443;-74
2021/12/12 03:16:38;;;;;;;5.63;3.73;;;6.10;99.80;;;;;;5017443;28;20447;-74
2021/12/12 03:19:07;;;;;;;10.57;4.07;;;6.10;99.80;;;;;;5017343;28;20498;-74
2021/12/12 03:21:42;;;;;;;7.67;4.30;;;6.10;99.90;;;;;;5017440;28;20937;-74
2021/12/12 03:24:12;;;;;;;9.40;5.53;;;6.10;99.90;;;;;;5017947;28;20443;-74
2021/12/12 03:26:42;;;;;;;9.80;4.00;;;6.10;99.90;;;;;;5017388;28;20799;-74
2021/12/12 03:29:10;;;;;;;8.43;4.30;;;6.20;99.90;;;;;;5017595;28;20463;-74
2021/12/12 03:31:39;;;;;;;7.17;3.60;;;6.20;99.90;;;;;;5017607;28;20534;-74
2021/12/12 03:34:07;;;;;;;10.23;4.20;;;6.20;99.90;;;;;;5017493;28;20447;-75
2021/12/12 03:36:35;;;;;;;9.00;4.17;;;6.20;99.90;;;;;;5017497;28;20450;-75
2021/12/12 03:39:07;;;;;;;8.67;3.73;;;6.30;99.90;;;;;;5017203;28;20490;-75
2021/12/12 03:41:36;;;;;;;10.37;4.50;;;6.30;99.90;;;;;;5017471;28;20432;-74
2021/12/12 03:44:07;;;;;;;11.17;4.07;;;6.20;99.90;;;;;;5017339;28;20951;-74
2021/12/12 03:46:37;;;;;;;8.80;4.80;;;6.20;99.90;;;;;;5017393;28;20439;-74
2021/12/12 03:49:06;;;;;;;14.53;5.93;;;6.20;99.90;;;;;;5017149;28;20467;-73
2021/12/12 03:51:35;;;;;;;8.83;4.53;;;6.20;99.90;;;;;;5017527;28;20458;-73
2021/12/12 03:54:01;;;;;;;6.80;4.13;;;6.10;99.90;;;;;;5017133;28;20443;-73
2021/12/12 03:56:29;;;;;;;7.00;3.90;;;6.20;99.90;;;;;;5017044;28;20447;-73
2021/12/12 03:58:57;;;;;;;8.87;4.43;;;6.20;99.90;;;;;;5016762;28;21005;-73
2021/12/12 04:01:29;;;;;;;6.90;4.10;;;6.20;99.90;;;;;;5017710;28;20498;-75
2021/12/12 04:04:00;;;;;;;7.40;3.67;;;6.20;99.90;;;;;;5018311;28;20427;-75
2021/12/12 04:06:30;;;;;;;8.40;4.60;;;6.20;99.90;;;;;;5018432;28;20427;-75
2021/12/12 04:08:58;;;;;;;7.77;3.87;;;6.20;99.90;;;;;;5017196;28;20491;-75
2021/12/12 04:11:27;;;;;;;6.47;4.27;;;6.20;99.90;;;;;;5016473;28;20823;-74
2021/12/12 04:13:56;;;;;;;17.03;4.83;;;6.20;99.90;;;;;;5016439;28;20450;-74
2021/12/12 04:16:25;;;;;;;8.03;3.73;;;6.20;99.90;;;;;;5016830;28;20933;-74
2021/12/12 04:18:52;;;;;;;7.50;4.63;;;6.20;99.90;;;;;;5016357;28;20491;-75
2021/12/12 04:21:23;;;;;;;6.57;3.80;;;6.20;99.90;;;;;;5016311;28;20442;-74
2021/12/12 04:23:50;;;;;;;7.33;4.50;;;6.30;99.90;;;;;;5016556;28;20462;-75
2021/12/12 04:26:22;;;;;;;6.73;3.33;;;6.30;99.90;;;;;;5015806;28;20451;-75
2021/12/12 04:28:57;;;;;;;12.30;4.43;;;6.30;99.90;;;;;;5016613;28;20471;-74
2021/12/12 04:31:25;;;;;;;12.73;4.93;;;6.30;99.90;;;;;;5016228;28;20906;-74
2021/12/12 04:33:52;;;;;;;7.17;3.77;;;6.30;99.90;;;;;;5016254;28;20950;-74
2021/12/12 04:36:23;;;;;;;9.10;4.43;;;6.30;99.90;;;;;;5016740;28;20447;-74
2021/12/12 04:38:51;;;;;;;9.70;4.30;;;6.30;99.90;;;;;;5016095;28;20490;-74
2021/12/12 04:41:22;;;;;;;7.30;3.73;;;6.40;99.90;;;;;;5016279;28;20818;-74
2021/12/12 04:43:49;;;;;;;10.40;4.20;;;6.40;99.90;;;;;;5016266;28;20439;-74
2021/12/12 04:46:24;;;;;;;13.37;4.50;;;6.30;99.90;;;;;;5016223;28;20458;-74
2021/12/12 04:51:42;;;;;;;8.87;4.70;;;6.30;99.90;;;;;;5016229;28;20450;-73
2021/12/12 04:54:16;;;;;;;12.10;4.20;;;6.30;99.90;;;;;;5016175;28;20439;-73
2021/12/12 04:56:52;;;;;;;12.80;4.67;;;6.30;99.90;;;;;;5016247;28;20435;-73
2021/12/12 04:59:23;;;;;;;10.33;4.47;;;6.30;99.90;;;;;;5016239;28;20491;-73
2021/12/12 05:01:57;;;;;;;5.67;3.87;;;6.30;99.90;;;;;;5015638;28;20944;-73
2021/12/12 05:04:30;;;;;;;8.10;4.70;;;6.30;99.90;;;;;;5016241;28;20450;-73
2021/12/12 05:07:02;;;;;;;11.40;4.57;;;6.40;99.90;;;;;;5016220;28;20830;-74
2021/12/12 05:09:35;;;;;;;8.30;4.60;;;6.30;99.90;;;;;;5015663;28;20463;-74
2021/12/12 05:12:05;;;;;;;15.30;4.97;;;6.40;99.90;;;;;;5015742;28;20443;-73
2021/12/12 05:14:36;;;;;;;9.17;4.90;;;6.40;99.90;;;;;;5015900;28;20431;-73
2021/12/12 05:17:09;;;;;;;10.17;5.27;;;6.40;99.90;;;;;;5015609;28;20439;-73
2021/12/12 05:19:39;;;;;;;16.70;5.30;;;6.40;99.90;;;;;;5015000;28;20491;-74
2021/12/12 05:22:09;;;;;;;14.23;5.53;;;6.40;99.90;;;;;;5015468;28;20451;-74
2021/12/12 05:24:39;;;;;;;13.80;5.03;;;6.40;99.90;;;;;;5015619;28;20466;-73
2021/12/12 05:27:10;;;;;;;6.33;4.50;;;6.40;99.90;;;;;;5015494;28;20447;-73
2021/12/12 05:29:40;;;;;;;7.77;4.23;;;6.40;99.90;;;;;;5015267;28;20474;-73
2021/12/12 05:32:10;;;;;;;14.33;5.47;;;6.40;99.90;;;;;;5015450;28;20442;-74
2021/12/12 05:34:39;;;;;;;8.80;5.20;;;6.40;99.90;;;;;;5015107;28;20451;-73
2021/12/12 05:37:06;;;;;;;9.37;5.23;;;6.30;99.90;;;;;;5015324;28;20448;-73
2021/12/12 05:39:35;;;;;;;9.10;4.73;;;6.40;99.90;;;;;;5014870;28;20490;-74
2021/12/12 05:42:03;;;;;;;8.50;4.97;;;6.40;99.90;;;;;;5015297;28;20427;-74
2021/12/12 05:44:32;;;;;;;11.60;4.97;;;6.40;99.90;;;;;;5015067;28;20447;-74
2021/12/12 05:47:01;;;;;;;13.37;5.87;;;6.40;99.90;;;;;;5014771;28;20501;-74
2021/12/12 05:49:29;;;;;;;16.93;5.07;;;6.40;99.90;;;;;;5016046;28;20471;-74
2021/12/12 05:51:56;;;;;;;7.90;4.80;;;6.40;99.90;;;;;;5015676;28;20455;-74
2021/12/12 05:54:24;;;;;;;9.80;5.67;;;6.40;99.90;;;;;;5015074;28;20451;-74
2021/12/12 05:56:52;;;;;;;11.23;4.67;;;6.40;99.90;;;;;;5015004;28;20443;-74
2021/12/12 05:59:22;;;;;;;9.13;4.73;;;6.40;99.90;;;;;;5014773;28;20855;-74
2021/12/12 06:01:50;;;;;;;9.93;4.83;;;6.50;99.90;;;;;;5014605;28;20451;-74
2021/12/12 06:04:18;;;;;;;7.13;5.33;;;6.50;99.90;;;;;;5014689;28;20459;-74
2021/12/12 06:06:46;;;;;;;9.13;6.03;;;6.50;99.90;;;;;;5014879;28;20432;-74
2021/12/12 06:09:14;;;;;;;6.93;5.40;;;6.40;99.90;;;;;;5014916;28;20470;-74
2021/12/12 06:11:44;;;;;;;8.73;5.07;;;6.40;99.90;;;;;;5014937;28;20546;-74
2021/12/12 06:14:12;;;;;;;9.70;5.50;;;6.40;99.90;;;;;;5014778;28;20438;-74
2021/12/12 06:16:41;;;;;;;7.60;4.50;;;6.50;99.90;;;;;;5014552;28;20458;-74
2021/12/12 06:19:12;;;;;;;13.40;5.70;;;6.50;99.90;;;;;;5013979;28;20487;-74
2021/12/12 06:21:40;;;;;;;12.20;5.17;;;6.50;99.90;;;;;;5014125;28;20443;-74
2021/12/12 06:24:07;;;;;;;7.13;5.70;;;6.50;99.90;;;;;;5014297;28;20451;-74
2021/12/12 06:26:36;;;;;;;11.03;5.03;;;6.50;99.90;;;;;;5014113;28;20965;-74
2021/12/12 06:29:03;;;;;;;14.33;5.60;;;6.50;99.90;;;;;;5014239;28;20459;-74
2021/12/12 06:31:31;;;;;;;9.20;4.83;;;6.60;99.90;;;;;;5014159;28;20456;-74
2021/12/12 06:33:59;;;;;;;6.97;4.30;;;6.60;99.90;;;;;;5013926;28;20540;-74
2021/12/12 06:36:26;;;;;;;13.50;5.57;;;6.60;99.90;;;;;;5014299;28;20432;-74
2021/12/12 06:38:56;;;;;;;7.60;4.00;;;6.60;99.90;;;;;;5013996;28;20483;-74
2021/12/12 06:41:24;;;;;;;14.80;4.70;;;6.60;99.90;;;;;;5014440;28;20941;-74
2021/12/12 06:43:53;;;;;;;7.93;4.53;;;6.70;99.90;;;;;;5014082;28;20440;-74
2021/12/12 06:46:21;;;;;;;11.03;4.50;;;6.70;99.90;;;;;;5014448;28;20801;-74
2021/12/12 06:48:48;;;;;;;10.87;5.30;;;6.70;99.90;;;;;;5014039;28;21006;-74
2021/12/12 06:51:17;;;;;;;6.43;4.60;;;6.70;99.90;;;;;;5013614;28;20455;-74
2021/12/12 06:53:46;;;;;;;6.20;4.40;;;6.70;99.90;;;;;;5013986;28;20470;-74
2021/12/12 06:56:17;;;;;;;7.80;4.70;;;6.70;99.90;;;;;;5013983;28;20458;-74
2021/12/12 06:58:44;;;;;;;9.00;5.10;;;6.70;99.90;;;;;;5013701;28;20490;-74
2021/12/12 07:01:16;;;;;;;8.03;4.50;;;6.80;99.90;;;;;;5014072;28;20454;-73
2021/12/12 07:03:43;;;;;;;8.30;5.00;;;6.80;99.90;;;;;;5013844;28;20522;-73
2021/12/12 07:06:10;;;;;;;9.70;4.70;;;6.90;99.90;;;;;;5013830;28;20451;-73
2021/12/12 07:08:39;;;;;;;6.50;4.37;;;6.90;99.90;;;;;;5013723;28;20878;-73
2021/12/12 07:11:08;;;;;;;9.33;4.80;;;6.90;99.90;;;;;;5013472;28;20483;-73
2021/12/12 07:13:35;;;;;;;7.73;4.90;;;6.90;99.90;;;;;;5013644;28;20446;-73
2021/12/12 07:16:05;;;;;;;8.43;5.87;;;6.90;99.90;;;;;;5013463;28;21084;-73
2021/12/12 07:18:34;;;;;;;10.87;5.17;;;6.90;99.90;;;;;;5013520;28;20479;-73
2021/12/12 07:21:05;;;;;;;9.83;5.30;;;6.90;99.90;;;;;;5014034;28;20448;-73
2021/12/12 07:23:33;;;;;;;10.93;5.70;;;6.90;99.90;;;;;;5013611;28;20440;-73
2021/12/12 07:26:05;;;;;;;10.80;7.50;;;6.90;99.90;;;;;;5014187;28;20449;-73
2021/12/12 07:28:33;;;;;;;7.40;5.03;;;6.90;99.90;;;;;;5013753;28;20550;-73
2021/12/12 07:31:02;;;;;;;9.93;4.90;;;7.00;99.90;;;;;;5013654;28;20458;-73
2021/12/12 07:33:30;;;;;;;9.20;5.20;;;7.00;99.90;;;;;;5014670;28;20452;-73
2021/12/12 07:35:59;;;;;;;9.73;4.60;;;7.00;99.90;;;;;;5013589;28;20469;-73
2021/12/12 07:38:28;;;;;;;6.83;4.27;;;7.10;99.90;;;;;;5013503;28;20467;-74
2021/12/12 07:40:55;;;;;;;7.00;4.40;;;7.10;99.90;;;;;;5013378;28;20487;-74
2021/12/12 07:43:24;;;;;;;6.90;3.70;;;7.10;99.90;;;;;;5014398;28;20816;-74
2021/12/12 07:45:51;;;;;;;7.80;4.80;;;7.20;99.90;;;;;;5013918;28;20447;-73
2021/12/12 07:48:18;;;;;;;7.67;4.23;;;7.20;99.90;;;;;;5013620;28;20467;-73
2021/12/12 07:50:48;;;;;;;7.33;3.70;;;7.20;99.90;;;;;;5013315;28;20447;-73
2021/12/12 07:53:17;;;;;;;5.97;3.93;;;7.20;99.90;;;;;;5013244;28;20458;-73
2021/12/12 07:55:44;;;;;;;8.27;4.40;;;7.30;99.90;;;;;;5014360;28;20439;-73
2021/12/12 07:58:13;;;;;;;5.40;3.60;;;7.30;99.90;;;;;;5013254;28;20471;-73
2021/12/12 08:00:44;;;;;;;7.07;4.40;;;7.30;99.90;;;;;;5013813;28;20875;-73
2021/12/12 08:03:12;;;;;;;5.97;3.80;;;7.30;99.90;;;;;;5018083;28;20482;-73
2021/12/12 08:05:39;;;;;;;4.97;4.13;;;7.30;99.90;;;;;;5017353;28;20914;-73
2021/12/12 08:08:10;;;;;;;5.80;4.20;;;7.40;99.90;;;;;;5017394;28;20454;-73
2021/12/12 08:10:38;;;;;;;9.27;4.17;;;7.40;99.90;;;;;;5017144;28;20438;-73
2021/12/12 08:13:06;;;;;;;6.47;3.40;;;7.40;99.90;;;;;;5016820;28;20447;-73
2021/12/12 08:15:33;;;;;;;8.37;3.97;;;7.50;99.90;;;;;;5016441;28;20929;-73
2021/12/12 08:18:05;;;;;;;10.47;3.70;;;7.40;99.90;;;;;;5016194;28;20956;-73
2021/12/12 08:20:33;;;;;;;6.37;3.40;;;7.50;99.90;;;;;;5016318;28;21016;-73
2021/12/12 08:23:00;;;;;;;5.40;3.37;;;7.50;99.90;;;;;;5016627;28;20451;-73
2021/12/12 08:25:28;;;;;;;4.37;3.00;;;7.50;99.90;;;;;;5016557;28;20462;-73
2021/12/12 08:27:58;;;;;;;6.53;3.70;;;7.60;99.90;;;;;;5016475;28;20451;-73
2021/12/12 08:30:25;;;;;;;5.20;3.83;;;7.60;99.90;;;;;;5016263;28;20447;-74
2021/12/12 08:32:52;;;;;;;11.63;6.33;;;7.60;99.90;;;;;;5016564;28;20817;-73
2021/12/12 08:35:24;;;;;;;13.20;7.70;;;7.60;99.90;;;;;;5016402;28;20450;-73
2021/12/12 08:37:52;;;;;;;9.33;6.37;;;7.70;99.90;;;;;;5016029;28;20912;-72
2021/12/12 08:40:21;;;;;;;17.92;9.07;;;7.80;99.90;;;;;;5015364;28;20462;-71
2021/12/12 08:42:49;;;;;;;3.37;3.07;;;7.90;99.90;;;;;;5015895;28;20578;-69
2021/12/12 08:45:18;;;;;;;2.87;2.40;;;7.90;99.90;;;;;;5016220;28;20475;-69
2021/12/12 08:50:34;;;;;;;27.87;5.33;;;7.90;99.90;;;;;;5015401;28;20447;-75
2021/12/12 08:53:02;;;;;;;5.07;3.23;;;7.90;99.90;;;;;;5016167;28;20770;-75
2021/12/12 08:55:35;;;;;;;3.80;2.30;;;8.00;99.90;;;;;;5016011;28;20454;-72
2021/12/12 08:58:14;;;;;;;5.90;2.67;;;8.10;99.90;;;;;;5015681;28;20894;-74
2021/12/12 09:00:44;;;;;;;12.93;3.03;;;8.10;99.90;;;;;;5015911;28;20525;-73
2021/12/12 09:03:14;;;;;;;2.97;2.20;;;8.20;99.90;;;;;;5015887;28;20454;-73
2021/12/12 09:05:44;;;;;;;48.10;4.57;;;8.30;99.90;;;;;;5015845;28;20439;-73
2021/12/12 09:08:15;;;;;;;130.20;10.03;;;8.30;99.90;;;;;;5015424;28;20479;-73
2021/12/12 09:10:46;;;;;;;9.63;2.40;;;8.40;99.90;;;;;;5015724;28;20435;-73
2021/12/12 09:13:18;;;;;;;654.10;40.70;;;8.50;99.90;;;;;;5015235;28;20436;-73
2021/12/12 09:15:48;;;;;;;95.90;5.83;;;8.50;99.90;;;;;;5015310;28;20902;-73
2021/12/12 09:18:20;;;;;;;5.13;3.77;;;8.50;99.90;;;;;;5015320;28;20479;-73
2021/12/12 09:20:55;;;;;;;6.57;3.83;;;8.60;99.90;;;;;;5015481;28;20942;-74
2021/12/12 09:23:25;;;;;;;5.27;2.57;;;8.60;99.90;;;;;;5015639;28;20435;-74
2021/12/12 09:25:56;;;;;;;6.60;4.70;;;8.60;99.90;;;;;;5015453;28;20447;-73
2021/12/12 09:28:29;;;;;;;13.83;4.27;;;8.60;99.90;;;;;;5015336;28;20475;-74
2021/12/12 09:30:57;;;;;;;17.67;8.03;;;8.70;99.90;;;;;;5015382;28;20431;-73
2021/12/12 09:33:32;;;;;;;7.43;4.67;;;8.70;99.90;;;;;;5015271;28;20447;-73
2021/12/12 09:36:04;;;;;;;4.13;2.77;;;8.70;99.90;;;;;;5015273;28;20431;-73
2021/12/12 09:38:34;;;;;;;3.43;1.70;;;8.80;99.90;;;;;;5015106;28;20467;-72
2021/12/12 09:41:18;;;;;;;1.20;1.20;;;8.70;99.90;;;;;;5015053;28;20467;-73
2021/12/12 09:44:00;;;;;;;2.30;1.33;;;8.80;99.90;;;;;;5015161;28;20436;-73
2021/12/12 09:46:57;;;;;;;10.87;1.80;;;8.80;99.90;;;;;;5015156;28;20775;-73
2021/12/12 09:53:10;;;;;;;79.97;5.77;;;9.00;99.90;;;;;;5015123;28;20411;-74
2021/12/12 09:55:45;;;;;;;2.80;1.50;;;9.10;99.90;;;;;;5014653;28;20481;-74
2021/12/12 09:58:21;;;;;;;18.25;2.05;;;9.10;99.90;;;;;;5014112;28;20936;-75
2021/12/12 10:00:58;;;;;;;7.27;3.43;;;9.10;99.90;;;;;;5014697;28;20208;-74
2021/12/12 10:03:31;;;;;;;10.30;2.37;;;9.10;99.90;;;;;;5014821;28;20474;-72
2021/12/12 10:06:05;;;;;;;4.30;1.43;;;9.10;99.90;;;;;;5014439;28;20816;-73
2021/12/12 10:08:48;;;;;;;4.00;1.20;;;9.10;99.90;;;;;;5014604;28;20467;-72
2021/12/12 10:11:27;;;;;;;2.33;1.40;;;9.20;99.90;;;;;;5014685;28;20432;-73
2021/12/12 10:14:02;;;;;;;1.80;1.37;;;9.20;99.90;;;;;;5014465;28;20435;-76
2021/12/12 10:16:35;;;;;;;1.60;1.50;;;9.20;99.90;;;;;;5014631;28;20431;-74
2021/12/12 10:19:08;;;;;;;2.03;1.87;;;9.30;99.90;;;;;;5014616;28;20483;-77
2021/12/12 10:21:45;;;;;;;5.30;1.87;;;9.40;99.90;;;;;;5014330;28;20467;-73
2021/12/12 10:24:25;;;;;;;2.83;1.40;;;9.40;99.90;;;;;;5013907;28;20435;-72
2021/12/12 10:27:00;;;;;;;1.53;1.33;;;9.40;99.90;;;;;;5014433;28;20463;-75
2021/12/12 10:29:31;;;;;;;5.93;1.60;;;9.50;99.90;;;;;;5014239;28;20485;-75
2021/12/12 10:32:03;;;;;;;3.10;1.80;;;9.50;99.90;;;;;;5014293;28;20424;-75
2021/12/12 10:34:36;;;;;;;1.90;1.50;;;9.60;99.90;;;;;;5014394;28;20431;-76
2021/12/12 10:37:09;;;;;;;4.53;1.97;;;9.60;99.90;;;;;;5014176;28;20432;-76
2021/12/12 10:39:40;;;;;;;5.50;2.13;;;9.60;99.90;;;;;;5014975;28;20473;-74
2021/12/12 10:42:11;;;;;;;2.50;1.80;;;9.50;99.90;;;;;;5014086;28;20427;-73
2021/12/12 10:44:42;;;;;;;3.30;2.40;;;9.50;99.90;;;;;;5014297;28;20440;-74
2021/12/12 10:47:13;;;;;;;2.87;2.30;;;9.50;99.90;;;;;;5014574;28;20435;-74
2021/12/12 10:49:53;;;;;;;3.03;2.30;;;9.60;99.90;;;;;;5014031;28;20467;-75
2021/12/12 10:52:26;;;;;;;5.53;2.40;;;9.60;99.90;;;;;;5014021;28;20443;-75
2021/12/12 10:54:59;;;;;;;5.50;2.67;;;9.60;99.90;;;;;;5014140;28;20857;-75
2021/12/12 10:57:28;;;;;;;5.80;2.37;;;9.60;99.90;;;;;;5013926;28;20435;-76
2021/12/12 11:00:01;;;;;;;4.50;2.50;;;9.60;99.90;;;;;;5014509;28;20491;-73
2021/12/12 11:02:32;;;;;;;3.10;2.53;;;9.60;99.90;;;;;;5014823;28;20436;-69
2021/12/12 11:05:06;;;;;;;6.33;2.80;;;9.60;99.90;;;;;;5014772;28;20490;-72
2021/12/12 11:07:38;;;;;;;7.60;3.00;;;9.60;99.90;;;;;;5013957;28;20428;-75
2021/12/12 11:10:12;;;;;;;3.60;2.80;;;9.60;99.90;;;;;;5014065;28;20467;-75
2021/12/12 11:12:44;;;;;;;5.10;3.10;;;9.70;99.90;;;;;;5014044;28;20427;-74
2021/12/12 11:15:44;;;;;;;4.03;2.87;;;9.70;99.90;;;;;;5013416;28;20438;-74
2021/12/12 11:18:28;;;;;;;7.00;2.90;;;9.70;99.90;;;;;;5013310;28;20490;-75
2021/12/12 11:21:02;;;;;;;5.73;2.90;;;9.80;99.90;;;;;;5013577;28;20483;-74
2021/12/12 11:23:33;;;;;;;5.43;3.17;;;9.80;99.90;;;;;;5013334;28;20431;-74
2021/12/12 11:26:04;;;;;;;3.67;2.80;;;9.90;99.90;;;;;;5013734;28;20441;-74
2021/12/12 11:28:36;;;;;;;7.67;3.40;;;9.90;99.90;;;;;;5013302;28;20455;-74
2021/12/12 11:31:07;;;;;;;4.37;3.50;;;9.90;99.90;;;;;;5013544;28;20424;-74
2021/12/12 11:33:36;;;;;;;4.10;2.97;;;9.90;99.90;;;;;;5013271;28;20984;-74
2021/12/12 11:36:04;;;;;;;5.50;4.30;;;10.00;99.90;;;;;;5014396;28;20483;-74
2021/12/12 11:38:38;;;;;;;3.90;3.30;;;10.00;99.90;;;;;;5017364;28;20471;-74
2021/12/12 11:41:11;;;;;;;6.93;3.23;;;10.10;99.90;;;;;;5017361;28;20474;-74
2021/12/12 11:43:42;;;;;;;4.10;2.73;;;10.10;99.90;;;;;;5017382;28;20431;-74
2021/12/12 11:46:13;;;;;;;4.87;2.57;;;10.10;99.90;;;;;;5017080;28;20902;-75
2021/12/12 11:48:50;;;;;;;10.30;2.80;;;10.10;99.90;;;;;;5017170;28;20470;-74
2021/12/12 11:51:22;;;;;;;4.60;3.07;;;10.20;99.90;;;;;;5017212;28;20427;-75
2021/12/12 11:53:52;;;;;;;4.23;2.97;;;10.20;99.90;;;;;;5017189;28;20848;-75
2021/12/12 11:56:25;;;;;;;2.47;2.23;;;10.20;99.90;;;;;;5017251;28;20442;-75
2021/12/12 11:59:08;;;;;;;2.80;2.50;;;10.20;99.90;;;;;;5017087;28;20502;-74
2021/12/12 12:01:44;;;;;;;4.50;2.77;;;10.30;99.90;;;;;;5017032;28;20494;-74
2021/12/12 12:04:17;;;;;;;2.57;2.30;;;10.30;99.90;;;;;;5017200;28;20450;-74
2021/12/12 12:07:02;;;;;;;2.10;1.90;;;10.30;99.90;;;;;;5017085;28;20431;-75
2021/12/12 12:09:44;;;;;;;4.93;3.00;;;10.40;99.90;;;;;;5016823;28;20474;-75
2021/12/12 12:12:19;;;;;;;2.40;2.03;;;10.40;99.90;;;;;;5016902;28;20436;-74
2021/12/12 12:15:04;;;;;;;7.63;2.73;;;10.40;99.90;;;;;;5016973;28;20808;-74
2021/12/12 12:17:43;;;;;;;3.50;2.20;;;10.40;99.90;;;;;;5016769;28;20431;-74
2021/12/12 12:20:17;;;;;;;4.33;2.47;;;10.40;99.90;;;;;;5016292;28;20478;-74
2021/12/12 12:22:47;;;;;;;2.63;2.00;;;10.40;99.90;;;;;;5017049;28;20434;-74
2021/12/12 12:25:21;;;;;;;4.00;2.67;;;10.40;99.90;;;;;;5016321;28;20526;-74
2021/12/12 12:27:53;;;;;;;3.30;2.77;;;10.40;99.90;;;;;;5016553;28;20436;-74
2021/12/12 12:30:56;;;;;;;2.40;2.20;;;10.30;99.90;;;;;;5017455;28;20442;-74
2021/12/12 12:33:58;;;;;;;7.10;2.10;;;10.30;99.90;;;;;;5015978;28;20454;-74
2021/12/12 12:37:17;;;;;;;2.57;2.23;;;10.30;99.90;;;;;;5016370;28;20497;-74
2021/12/12 12:40:35;;;;;;;3.13;2.70;;;10.20;99.90;;;;;;5016299;28;20484;-74
2021/12/12 12:43:44;;;;;;;4.20;2.80;;;10.20;99.90;;;;;;5016255;28;20460;-74
2021/12/12 12:46:44;;;;;;;4.83;2.60;;;10.10;99.90;;;;;;5016240;28;20526;-74
2021/12/12 12:50:03;;;;;;;3.47;2.90;;;10.10;99.90;;;;;;5015476;28;20474;-74
2021/12/12 12:53:04;;;;;;;3.47;2.50;;;10.20;99.90;;;;;;4955558;29;20498;-74
2021/12/12 12:55:47;;;;;;;4.60;3.00;;;10.20;99.90;;;;;;5016152;28;20463;-75
2021/12/12 12:58:30;;;;;;;4.53;3.23;;;10.20;99.90;;;;;;5015614;28;21039;-74
2021/12/12 13:01:09;;;;;;;3.30;3.00;;;10.10;99.90;;;;;;5015879;28;20475;-74
2021/12/12 13:03:40;;;;;;;2.77;2.40;;;10.10;99.90;;;;;;5015950;28;20451;-74
2021/12/12 13:06:46;;;;;;;2.53;2.33;;;10.10;99.90;;;;;;5015860;28;20438;-74
2021/12/12 13:09:26;;;;;;;4.10;2.90;;;10.10;99.90;;;;;;5016024;28;20467;-74
2021/12/12 13:12:20;;;;;;;3.27;2.93;;;10.00;99.90;;;;;;5016377;28;20432;-75
2021/12/12 13:14:52;;;;;;;6.23;3.30;;;10.00;99.90;;;;;;5015616;28;20454;-75
2021/12/12 13:17:30;;;;;;;4.33;2.90;;;9.90;99.90;;;;;;5015596;28;20462;-75
2021/12/12 13:20:11;;;;;;;3.70;2.97;;;9.90;99.90;;;;;;5015102;28;20481;-71
2021/12/12 13:22:48;;;;;;;3.13;2.87;;;10.00;99.90;;;;;;5015634;28;20428;-73
2021/12/12 13:25:21;;;;;;;4.10;3.70;;;10.00;99.90;;;;;;5015512;28;20451;-74
2021/12/12 13:28:03;;;;;;;6.43;3.10;;;10.00;99.90;;;;;;5015593;28;20431;-74
2021/12/12 13:30:42;;;;;;;3.93;3.30;;;10.00;99.90;;;;;;5015493;28;20431;-74
2021/12/12 13:33:19;;;;;;;4.60;3.07;;;10.00;99.90;;;;;;5015341;28;20475;-74
2021/12/12 13:36:27;;;;;;;3.60;3.30;;;9.90;99.90;;;;;;5015312;28;20435;-75
2021/12/12 13:39:07;;;;;;;3.67;3.33;;;9.90;99.90;;;;;;5015422;28;20482;-75
2021/12/12 13:41:44;;;;;;;5.30;3.10;;;10.00;99.90;;;;;;5015687;28;20566;-72